createdAt,value
2018-11-21T00:01:44.813Z,1.10
2018-11-21T00:04:26.389Z,1.00
2018-11-21T00:07:07.534Z,1.00
2018-11-21T00:09:49.388Z,1.00
2018-11-21T00:12:30.970Z,1.00
2018-11-21T00:15:12.673Z,1.00
2018-11-21T00:17:54.563Z,1.10
2018-11-21T00:20:36.303Z,1.20
2018-11-21T00:23:17.914Z,1.20
2018-11-21T00:25:59.058Z,1.40
2018-11-21T00:28:40.912Z,1.40
2018-11-21T00:31:22.753Z,1.30
2018-11-21T00:34:04.431Z,1.20
2018-11-21T00:36:45.855Z,1.30
2018-11-21T00:39:15.134Z,1.30
2018-11-21T00:42:03.697Z,1.20
2018-11-21T00:44:45.006Z,1.10
2018-11-21T00:47:26.677Z,1.00
2018-11-21T00:50:08.569Z,1.10
2018-11-21T00:52:49.715Z,1.00
2018-11-21T00:55:31.087Z,0.90
2018-11-21T00:58:12.796Z,0.80
2018-11-21T01:00:54.573Z,0.70
2018-11-21T01:03:36.395Z,0.70
2018-11-21T01:06:17.764Z,0.60
2018-11-21T01:08:59.219Z,0.80
2018-11-21T01:11:40.666Z,0.80
2018-11-21T01:14:21.713Z,0.70
2018-11-21T01:17:03.816Z,0.70
2018-11-21T01:19:45.412Z,0.60
2018-11-21T01:22:26.745Z,0.60
2018-11-21T01:25:08.257Z,0.70
2018-11-21T01:27:49.776Z,0.70
2018-11-21T01:30:30.969Z,0.70
2018-11-21T01:33:13.180Z,0.70
2018-11-21T01:35:55.048Z,0.70
2018-11-21T01:38:36.685Z,0.70
2018-11-21T01:41:18.620Z,0.70
2018-11-21T01:43:59.911Z,0.70
2018-11-21T01:46:41.273Z,0.50
2018-11-21T01:49:22.629Z,0.60
2018-11-21T01:52:04.304Z,0.60
2018-11-21T01:54:46.120Z,0.60
2018-11-21T01:57:27.606Z,0.70
2018-11-21T02:00:09.871Z,0.60
2018-11-21T02:02:51.095Z,0.60
2018-11-21T02:05:32.492Z,0.50
2018-11-21T02:08:13.936Z,0.40
2018-11-21T02:10:55.397Z,0.40
2018-11-21T02:13:36.761Z,0.30
2018-11-21T02:16:17.894Z,0.40
2018-11-21T02:18:59.234Z,0.40
2018-11-21T02:21:40.666Z,0.30
2018-11-21T02:24:22.401Z,0.20
2018-11-21T02:27:03.968Z,0.10
2018-11-21T02:29:45.852Z,0.30
2018-11-21T02:32:27.104Z,0.30
2018-11-21T02:35:08.990Z,0.20
2018-11-21T02:37:50.339Z,0.10
2018-11-21T02:40:30.713Z,0.10
2018-11-21T02:43:19.262Z,0.10
2018-11-21T02:46:01.186Z,0.20
2018-11-21T02:48:42.684Z,0.20
2018-11-21T02:51:24.048Z,0.20
2018-11-21T02:54:06.090Z,0.10
2018-11-21T02:56:47.641Z,0.20
2018-11-21T02:59:29.271Z,0.20
2018-11-21T03:02:11.427Z,0.20
2018-11-21T03:04:52.905Z,0.10
2018-11-21T03:07:33.952Z,0.20
2018-11-21T03:10:15.290Z,0.20
2018-11-21T03:12:57.230Z,0.20
2018-11-21T03:15:38.345Z,0.10
2018-11-21T03:18:19.749Z,0.20
2018-11-21T03:21:01.336Z,0.20
2018-11-21T03:23:42.562Z,0.20
2018-11-21T03:26:23.744Z,0.10
2018-11-21T03:29:03.430Z,0.10
2018-11-21T03:31:52.013Z,0.00
2018-11-21T03:34:33.909Z,0.10
2018-11-21T03:37:13.500Z,-0.10
2018-11-21T03:40:02.063Z,-0.10
2018-11-21T03:42:43.879Z,-0.10
2018-11-21T03:45:25.313Z,0.00
2018-11-21T03:48:07.229Z,0.10
2018-11-21T03:50:49.127Z,0.00
2018-11-21T03:53:30.671Z,-0.10
2018-11-21T03:56:12.681Z,-0.10
2018-11-21T03:58:54.467Z,0.00
2018-11-21T04:01:36.109Z,0.00
2018-11-21T04:04:17.674Z,0.00
2018-11-21T04:06:58.775Z,0.00
2018-11-21T04:09:39.929Z,-0.10
2018-11-21T04:12:21.614Z,-0.20
2018-11-21T04:15:02.852Z,-0.30
2018-11-21T04:17:44.519Z,-0.10
2018-11-21T04:20:26.281Z,-0.10
2018-11-21T04:23:07.772Z,-0.20
2018-11-21T04:25:49.324Z,-0.20
2018-11-21T04:28:31.062Z,-0.10
2018-11-21T04:31:12.754Z,-0.10
2018-11-21T04:33:56.893Z,-0.10
2018-11-21T04:36:36.233Z,-0.10
2018-11-21T04:39:17.434Z,-0.10
2018-11-21T04:41:58.535Z,-0.30
2018-11-21T04:44:40.176Z,-0.20
2018-11-21T04:47:21.794Z,-0.20
2018-11-21T04:50:03.765Z,-0.20
2018-11-21T04:52:45.022Z,-0.20
2018-11-21T04:55:26.400Z,-0.30
2018-11-21T04:58:07.936Z,-0.30
2018-11-21T05:00:49.609Z,-0.30
2018-11-21T05:03:30.725Z,-0.20
2018-11-21T05:06:12.183Z,-0.30
2018-11-21T05:08:51.897Z,-0.20
2018-11-21T05:11:40.580Z,-0.20
2018-11-21T05:14:21.625Z,-0.20
2018-11-21T05:17:03.434Z,-0.20
2018-11-21T05:19:45.146Z,-0.20
2018-11-21T05:22:26.507Z,-0.30
2018-11-21T05:25:09.209Z,-0.40
2018-11-21T05:27:50.704Z,-0.50
2018-11-21T05:30:32.264Z,-0.40
2018-11-21T05:33:13.714Z,-0.40
2018-11-21T05:35:53.373Z,-0.50
2018-11-21T05:38:41.987Z,-0.50
2018-11-21T05:41:23.261Z,-0.40
2018-11-21T05:44:04.813Z,-0.30
2018-11-21T05:46:46.473Z,-0.30
2018-11-21T05:49:27.822Z,-0.40
2018-11-21T05:52:09.706Z,-0.30
2018-11-21T05:54:51.210Z,-0.30
2018-11-21T05:57:30.853Z,-0.30
2018-11-21T06:00:19.423Z,-0.30
2018-11-21T06:03:00.778Z,-0.30
2018-11-21T06:05:41.933Z,-0.40
2018-11-21T06:08:23.450Z,-0.50
2018-11-21T06:11:05.033Z,-0.40
2018-11-21T06:13:46.549Z,-0.30
2018-11-21T06:16:28.164Z,-0.30
2018-11-21T06:19:09.209Z,-0.60
2018-11-21T06:21:51.023Z,-0.50
2018-11-21T06:24:32.435Z,-0.30
2018-11-21T06:27:14.370Z,-0.40
2018-11-21T06:29:55.536Z,-0.40
2018-11-21T06:32:37.131Z,-0.40
2018-11-21T06:35:18.361Z,-0.30
2018-11-21T06:37:59.417Z,-0.20
2018-11-21T06:40:40.814Z,-0.20
2018-11-21T06:43:21.857Z,-0.10
2018-11-21T06:46:03.205Z,-0.30
2018-11-21T06:48:44.705Z,-0.30
2018-11-21T06:51:26.466Z,-0.20
2018-11-21T06:54:08.994Z,-0.20
2018-11-21T06:56:50.811Z,-0.10
2018-11-21T06:59:32.475Z,-0.20
2018-11-21T07:02:13.641Z,-0.20
2018-11-21T07:04:53.322Z,-0.20
2018-11-21T07:07:43.760Z,-0.20
2018-11-21T07:10:23.022Z,-0.10
2018-11-21T07:13:07.684Z,-0.20
2018-11-21T07:15:45.417Z,-0.10
2018-11-21T07:18:28.024Z,0.10
2018-11-21T07:21:09.975Z,0.10
2018-11-21T07:23:51.560Z,0.00
2018-11-21T07:26:32.892Z,0.10
2018-11-21T07:29:14.326Z,0.30
2018-11-21T07:31:55.923Z,0.30
2018-11-21T07:34:37.262Z,0.40
2018-11-21T07:37:19.301Z,0.40
2018-11-21T07:40:01.094Z,0.40
2018-11-21T07:42:42.802Z,0.40
2018-11-21T07:45:24.311Z,0.50
2018-11-21T07:48:05.448Z,0.50
2018-11-21T07:50:46.556Z,0.70
2018-11-21T07:53:28.367Z,0.80
2018-11-21T07:56:09.448Z,0.80
2018-11-21T07:58:51.077Z,0.70
2018-11-21T08:01:36.982Z,0.90
2018-11-21T08:04:23.176Z,1.10
2018-11-21T08:07:24.288Z,1.10
2018-11-21T08:10:18.033Z,1.10
2018-11-21T08:13:18.219Z,1.10
2018-11-21T08:16:18.588Z,1.20
2018-11-21T08:19:18.809Z,1.20
2018-11-21T08:22:13.020Z,1.30
2018-11-21T08:25:19.604Z,1.40
2018-11-21T08:28:26.672Z,1.40
2018-11-21T08:31:08.104Z,1.50
2018-11-21T08:33:50.092Z,1.60
2018-11-21T08:36:31.592Z,1.60
2018-11-21T08:39:12.895Z,1.50
2018-11-21T08:41:53.959Z,1.60
2018-11-21T08:44:35.903Z,1.60
2018-11-21T08:47:16.950Z,1.70
2018-11-21T08:49:58.734Z,1.70
2018-11-21T08:52:39.893Z,1.70
2018-11-21T08:55:21.811Z,1.70
2018-11-21T08:58:03.541Z,1.70
2018-11-21T09:00:46.033Z,1.70
2018-11-21T09:03:27.432Z,1.70
2018-11-21T09:06:08.580Z,1.70
2018-11-21T09:08:50.182Z,1.80
2018-11-21T09:11:31.906Z,1.90
2018-11-21T09:14:13.792Z,1.80
2018-11-21T09:16:55.275Z,1.90
2018-11-21T09:19:36.587Z,1.90
2018-11-21T09:22:17.757Z,2.00
2018-11-21T09:24:59.094Z,1.90
2018-11-21T09:27:40.807Z,2.00
2018-11-21T09:30:22.731Z,1.90
2018-11-21T09:35:45.421Z,2.00
2018-11-21T09:38:26.609Z,2.00
2018-11-21T09:41:08.202Z,1.80
2018-11-21T09:43:49.762Z,1.70
2018-11-21T09:46:31.105Z,1.90
2018-11-21T09:49:12.292Z,1.90
2018-11-21T09:51:53.390Z,1.90
2018-11-21T09:54:34.883Z,2.00
2018-11-21T09:57:16.771Z,2.20
2018-11-21T09:59:57.981Z,2.10
2018-11-21T10:02:39.473Z,2.20
2018-11-21T10:05:20.887Z,2.30
2018-11-21T10:08:02.971Z,2.30
2018-11-21T10:10:44.805Z,2.40
2018-11-21T10:13:26.053Z,2.40
2018-11-21T10:16:07.944Z,2.30
2018-11-21T10:18:51.519Z,2.40
2018-11-21T10:21:33.981Z,2.40
2018-11-21T10:24:15.354Z,2.30
2018-11-21T10:26:57.157Z,2.30
2018-11-21T10:29:38.903Z,2.30
2018-11-21T10:32:20.743Z,2.30
2018-11-21T10:35:02.260Z,2.30
2018-11-21T10:37:43.872Z,2.30
2018-11-21T10:40:25.514Z,2.30
2018-11-21T10:43:06.630Z,2.30
2018-11-21T10:45:48.598Z,2.40
2018-11-21T10:48:30.421Z,2.50
2018-11-21T10:51:12.212Z,2.50
2018-11-21T10:53:54.037Z,2.60
2018-11-21T10:56:35.675Z,2.60
2018-11-21T10:59:17.108Z,2.50
2018-11-21T11:02:18.026Z,2.40
2018-11-21T11:08:20.606Z,2.60
2018-11-21T11:11:16.321Z,2.40
2018-11-21T11:14:16.576Z,2.30
2018-11-21T11:17:18.017Z,2.10
2018-11-21T11:20:18.603Z,1.80
2018-11-21T11:23:18.735Z,1.90
2018-11-21T11:26:19.068Z,2.00
2018-11-21T11:29:19.217Z,2.10
2018-11-21T11:32:19.751Z,2.20
2018-11-21T11:35:19.958Z,2.30
2018-11-21T11:38:20.251Z,2.30
2018-11-21T11:41:21.236Z,2.40
2018-11-21T11:44:21.388Z,2.50
2018-11-21T11:47:29.059Z,2.50
2018-11-21T11:50:29.790Z,2.20
2018-11-21T11:53:30.187Z,2.00
2018-11-21T11:56:36.369Z,2.00
2018-11-21T11:59:43.383Z,1.90
2018-11-21T12:02:44.159Z,2.00
2018-11-21T12:08:59.165Z,1.90
2018-11-21T12:12:04.759Z,2.00
2018-11-21T12:14:48.559Z,2.20
2018-11-21T12:17:35.477Z,2.30
2018-11-21T12:20:33.632Z,2.30
2018-11-21T12:23:15.822Z,2.30
2018-11-21T12:26:12.282Z,2.40
2018-11-21T12:28:56.232Z,2.30
2018-11-21T12:31:43.353Z,2.20
2018-11-21T12:34:30.990Z,2.10
2018-11-21T12:37:28.378Z,2.10
2018-11-21T12:40:16.721Z,2.20
2018-11-21T12:43:03.740Z,2.20
2018-11-21T12:45:52.100Z,2.30
2018-11-21T12:48:55.367Z,2.30
2018-11-21T12:51:40.828Z,2.30
2018-11-21T12:54:34.880Z,2.30
2018-11-21T12:57:14.159Z,2.40
2018-11-21T13:00:11.530Z,2.30
2018-11-21T13:02:56.283Z,2.40
2018-11-21T13:05:45.440Z,2.40
2018-11-21T13:08:33.910Z,2.50
2018-11-21T13:11:25.050Z,2.40
2018-11-21T13:14:33.815Z,2.50
2018-11-21T13:17:20.526Z,2.50
2018-11-21T13:20:20.841Z,2.50
2018-11-21T13:23:12.885Z,2.50
2018-11-21T13:25:59.980Z,2.50
2018-11-21T13:28:57.424Z,2.50
2018-11-21T13:31:44.332Z,2.50
2018-11-21T13:34:31.474Z,2.50
2018-11-21T13:37:18.729Z,2.60
2018-11-21T13:40:13.245Z,2.60
2018-11-21T13:43:00.334Z,2.60
2018-11-21T13:46:06.735Z,2.60
2018-11-21T13:48:55.571Z,2.50
2018-11-21T13:51:48.224Z,2.50
2018-11-21T13:54:42.264Z,2.50
2018-11-21T13:57:11.522Z,2.60
2018-11-21T13:59:40.769Z,2.60
2018-11-21T14:02:10.040Z,2.60
2018-11-21T14:04:39.289Z,2.60
2018-11-21T14:07:09.044Z,2.70
2018-11-21T14:09:38.414Z,2.60
2018-11-21T14:12:07.647Z,2.60
2018-11-21T14:14:36.911Z,2.60
2018-11-21T14:17:06.534Z,2.70
2018-11-21T14:19:35.832Z,2.60
2018-11-21T14:22:05.217Z,2.70
2018-11-21T14:24:34.477Z,2.70
2018-11-21T14:27:03.696Z,2.70
2018-11-21T14:29:32.930Z,2.70
2018-11-21T14:32:02.178Z,2.70
2018-11-21T14:34:31.406Z,2.80
2018-11-21T14:37:00.654Z,2.70
2018-11-21T14:39:29.880Z,2.70
2018-11-21T14:41:59.132Z,2.70
2018-11-21T14:44:28.369Z,2.70
2018-11-21T14:46:58.435Z,2.80
2018-11-21T14:49:27.675Z,2.70
2018-11-21T14:51:56.932Z,2.80
2018-11-21T14:54:26.198Z,2.80
2018-11-21T14:56:55.490Z,2.90
2018-11-21T14:59:24.732Z,2.80
2018-11-21T15:01:53.974Z,2.90
2018-11-21T15:04:23.177Z,2.80
2018-11-21T15:06:52.468Z,2.80
2018-11-21T15:09:21.700Z,2.80
2018-11-21T15:11:50.989Z,2.80
2018-11-21T15:14:20.240Z,2.70
2018-11-21T15:16:49.561Z,2.70
2018-11-21T15:19:18.832Z,2.60
2018-11-21T15:21:48.119Z,2.70
2018-11-21T15:24:17.368Z,2.60
2018-11-21T15:26:46.636Z,2.60
2018-11-21T15:29:15.909Z,2.60
2018-11-21T15:31:45.172Z,2.60
2018-11-21T15:34:14.440Z,2.60
2018-11-21T15:36:43.718Z,2.60
2018-11-21T15:39:13.712Z,2.70
2018-11-21T15:41:42.356Z,2.70
2018-11-21T15:44:11.616Z,2.60
2018-11-21T15:46:45.693Z,2.60
2018-11-21T15:49:10.211Z,2.50
2018-11-21T15:51:40.013Z,2.40
2018-11-21T15:54:09.645Z,2.50
2018-11-21T15:56:39.141Z,2.40
2018-11-21T15:59:08.474Z,2.50
2018-11-21T16:01:37.676Z,2.40
2018-11-21T16:04:07.139Z,2.30
2018-11-21T16:06:36.452Z,2.20
2018-11-21T16:09:09.027Z,2.30
2018-11-21T16:11:38.284Z,2.10
2018-11-21T16:14:07.612Z,2.20
2018-11-21T16:16:36.904Z,2.20
2018-11-21T16:19:06.180Z,2.20
2018-11-21T16:21:35.438Z,2.30
2018-11-21T16:24:04.697Z,2.30
2018-11-21T16:26:33.954Z,2.40
2018-11-21T16:29:03.241Z,2.50
2018-11-21T16:31:32.526Z,2.50
2018-11-21T16:34:01.780Z,2.50
2018-11-21T16:36:31.028Z,2.50
2018-11-21T16:39:00.331Z,2.50
2018-11-21T16:41:29.647Z,2.50
2018-11-21T16:43:58.929Z,2.50
2018-11-21T16:46:28.160Z,2.60
2018-11-21T16:48:57.424Z,2.60
2018-11-21T16:51:26.661Z,2.50
2018-11-21T16:53:55.926Z,2.60
2018-11-21T16:56:25.185Z,2.60
2018-11-21T16:58:54.442Z,2.50
2018-11-21T17:01:23.698Z,2.30
2018-11-21T17:03:53.087Z,2.40
2018-11-21T17:06:22.329Z,2.40
2018-11-21T17:08:51.596Z,2.40
2018-11-21T17:11:20.877Z,2.40
2018-11-21T17:13:50.158Z,2.50
2018-11-21T17:16:19.426Z,2.50
2018-11-21T17:18:48.720Z,2.40
2018-11-21T17:21:17.945Z,2.50
2018-11-21T17:23:47.225Z,2.50
2018-11-21T17:26:16.491Z,2.40
2018-11-21T17:28:45.743Z,2.60
2018-11-21T17:31:15.034Z,2.60
2018-11-21T17:33:44.322Z,2.60
2018-11-21T17:36:13.569Z,2.60
2018-11-21T17:38:42.800Z,2.60
2018-11-21T17:41:12.074Z,2.60
2018-11-21T17:43:41.325Z,2.60
2018-11-21T17:46:10.661Z,2.50
2018-11-21T17:48:39.881Z,2.60
2018-11-21T17:51:09.185Z,2.50
2018-11-21T17:53:38.421Z,2.50
2018-11-21T17:56:07.753Z,2.60
2018-11-21T17:58:37.065Z,2.60
2018-11-21T18:01:06.492Z,2.40
2018-11-21T18:03:35.739Z,2.50
2018-11-21T18:06:05.083Z,2.40
2018-11-21T18:08:34.371Z,2.50
2018-11-21T18:11:03.615Z,2.50
2018-11-21T18:13:32.871Z,2.60
2018-11-21T18:16:02.155Z,2.50
2018-11-21T18:18:31.432Z,2.50
2018-11-21T18:21:00.675Z,2.50
2018-11-21T18:23:29.926Z,2.50
2018-11-21T18:25:59.185Z,2.50
2018-11-21T18:28:28.481Z,2.50
2018-11-21T18:30:57.707Z,2.40
2018-11-21T18:33:26.978Z,2.40
2018-11-21T18:35:56.259Z,2.40
2018-11-21T18:38:25.583Z,2.50
2018-11-21T18:40:54.877Z,2.60
2018-11-21T18:43:24.198Z,2.60
2018-11-21T18:45:53.617Z,2.50
2018-11-21T18:48:22.912Z,2.50
2018-11-21T18:50:52.142Z,2.50
2018-11-21T18:53:21.740Z,2.50
2018-11-21T18:55:57.589Z,2.60
2018-11-21T18:58:51.409Z,2.50
2018-11-21T19:01:20.680Z,2.60
2018-11-21T19:03:50.039Z,2.60
2018-11-21T19:06:19.304Z,2.60
2018-11-21T19:08:48.580Z,2.60
2018-11-21T19:11:17.828Z,2.60
2018-11-21T19:13:47.077Z,2.60
2018-11-21T19:16:16.362Z,2.70
2018-11-21T19:18:45.617Z,2.60
2018-11-21T19:21:14.913Z,2.70
2018-11-21T19:23:44.171Z,2.60
2018-11-21T19:26:13.432Z,2.60
2018-11-21T19:28:42.633Z,2.60
2018-11-21T19:31:11.913Z,2.60
2018-11-21T19:33:41.247Z,2.60
2018-11-21T19:36:13.226Z,2.50
2018-11-21T19:38:39.901Z,2.60
2018-11-21T19:41:09.171Z,2.60
2018-11-21T19:43:38.465Z,2.60
2018-11-21T19:46:07.776Z,2.60
2018-11-21T19:48:37.108Z,2.60
2018-11-21T19:51:07.411Z,2.60
2018-11-21T19:53:36.746Z,2.60
2018-11-21T19:56:06.629Z,2.50
2018-11-21T19:58:35.924Z,2.60
2018-11-21T20:01:05.241Z,2.60
2018-11-21T20:03:34.577Z,2.60
2018-11-21T20:06:03.863Z,2.60
2018-11-21T20:08:33.180Z,2.60
2018-11-21T20:11:02.509Z,2.60
2018-11-21T20:13:31.812Z,2.60
2018-11-21T20:16:01.096Z,2.60
2018-11-21T20:18:30.367Z,2.70
2018-11-21T20:20:59.664Z,2.70
2018-11-21T20:23:28.962Z,2.60
2018-11-21T20:25:58.206Z,2.60
2018-11-21T20:28:27.457Z,2.60
2018-11-21T20:30:56.739Z,2.60
2018-11-21T20:33:26.027Z,2.60
2018-11-21T20:35:55.336Z,2.60
2018-11-21T20:38:24.632Z,2.60
2018-11-21T20:40:53.889Z,2.60
2018-11-21T20:43:23.121Z,2.60
2018-11-21T20:45:52.381Z,2.70
2018-11-21T20:48:21.622Z,2.60
